Harrisville, MI

4:27 AM EDT on August 05, 2015 (GMT -0400)
KMIOSCOD3 | | Change Station
CLOSE
Current Station
Personal Weather Station
Location: On the Beach , North of Oscoda, MI
Elevation: 582 ft
Nearby Weather Stations

Elev 582 ft 44.51 °N, 83.32 °W | Updated 0 second ago

Clear
Clear
50.5 °F
Feels Like 50.5 °F
N
0.0
Wind Variable Wind from WNW
Gusts 0.0 mph

Today
High -- | Low -- °F
--% Chance of Precip.
Yesterday
High -- | Low -- °F
Precip. -- in
6:24 AM 8:54 PM
Waning Gibbous, 69% visible
Pressure 30.00 in
Visibility 10.0 miles
Clouds Clear
Dew Point 48 °F
Humidity 93%
Rainfall 0.00 in
Snow Depth Not available.
UV 0 out of 12
Pollen 6.30 out of 12
Air Quality Not available.
Flu Activity Not available.
METAR KOSC 050813Z AUTO 30003KT 10SM CLR 11/10 A3000 RMK AO2 T01090102

More Conditions Fewer Conditions

Pressure 30.00 in
Visibility 10.0 miles
Clouds Clear
Dew Point 48 °F
Humidity 93%
Rainfall 0.00 in
Snow Depth Not available.
UV 0 out of 12
Pollen 6.30 out of 12
Air Quality Not available.
Flu Activity Not available.
METAR KOSC 050813Z AUTO 30003KT 10SM CLR 11/10 A3000 RMK AO2 T01090102

More Conditions Fewer Conditions

Nowcast | as of 4:00 am EDT on August 5, 2015

At 5 am...clear. Temperature 55. Northwest winds 7 mph. At 7 am...mostly clear. Temperature 54. Northwest winds 7 mph. At 9 am...mostly clear. Temperature 58. Northwest winds 9 mph. At 11 am...mostly clear. Temperature 65. Northwest winds 9 mph.

×

10-Day Weather Forecast

×

Almanac

Astronomy

Aug. 05, 2015 Rise Set
Actual Time
Civil Twilight
Nautical Twilight
Astronomical Twilight
Moon
Length of Visible Light
Length of Day
Tomorrow will be .
, % of the Moon is Illuminated

Today's Extremes

State Highs State Lows

Community

WunderPhotos

Upload Photos

1,844,105 photos uploaded!

WunderBlogs® & News

Nearby

Air Quality

  Air Quality AQ Index Pollutant
Not available.

Snow Depth

Station Depth Elevation

Earthquake Activity

City Distance Mag. Time & Date
Minimum magnitude displayed is 2.5.

Coastal Water Temperatures

Place Temperature

Stations

Nearby Weather Stations

Station Location Temp. Windchill Dew Point Humidity Wind Precip. Elev Updated Type